sensor_id;sensor_type;location;lat;lon;timestamp;temperature;humidity
66710;DHT22;53624;0.000;0.000;2022-07-29T00:02:09;23.30;78.30
66710;DHT22;53624;0.000;0.000;2022-07-29T00:04:37;23.40;78.20
66710;DHT22;53624;0.000;0.000;2022-07-29T00:07:04;23.50;78.10
66710;DHT22;53624;0.000;0.000;2022-07-29T00:09:32;23.50;78.10
66710;DHT22;53624;0.000;0.000;2022-07-29T00:12:00;23.50;77.90
66710;DHT22;53624;0.000;0.000;2022-07-29T00:14:28;23.40;77.90
66710;DHT22;53624;0.000;0.000;2022-07-29T00:16:57;23.40;78.10
66710;DHT22;53624;0.000;0.000;2022-07-29T00:19:24;23.50;78.00
66710;DHT22;53624;0.000;0.000;2022-07-29T00:21:51;23.50;78.30
66710;DHT22;53624;0.000;0.000;2022-07-29T00:24:19;23.50;77.90
66710;DHT22;53624;0.000;0.000;2022-07-29T00:26:46;23.50;78.10
66710;DHT22;53624;0.000;0.000;2022-07-29T00:29:14;23.50;78.20
66710;DHT22;53624;0.000;0.000;2022-07-29T00:31:41;23.50;77.90
66710;DHT22;53624;0.000;0.000;2022-07-29T00:34:10;23.50;78.10
66710;DHT22;53624;0.000;0.000;2022-07-29T00:36:58;23.50;79.30
66710;DHT22;53624;0.000;0.000;2022-07-29T00:39:25;23.40;79.80
66710;DHT22;53624;0.000;0.000;2022-07-29T00:41:52;23.40;80.30
66710;DHT22;53624;0.000;0.000;2022-07-29T00:44:19;23.30;80.80
66710;DHT22;53624;0.000;0.000;2022-07-29T00:46:47;23.20;81.10
66710;DHT22;53624;0.000;0.000;2022-07-29T00:49:16;23.00;81.00
66710;DHT22;53624;0.000;0.000;2022-07-29T00:51:43;23.10;81.30
66710;DHT22;53624;0.000;0.000;2022-07-29T00:54:11;23.10;81.10
66710;DHT22;53624;0.000;0.000;2022-07-29T00:56:39;23.10;80.10
66710;DHT22;53624;0.000;0.000;2022-07-29T00:59:06;23.20;80.10
66710;DHT22;53624;0.000;0.000;2022-07-29T01:01:34;23.20;79.30
66710;DHT22;53624;0.000;0.000;2022-07-29T01:04:01;23.20;79.00
66710;DHT22;53624;0.000;0.000;2022-07-29T01:06:30;23.10;79.40
66710;DHT22;53624;0.000;0.000;2022-07-29T01:08:57;23.10;79.70
66710;DHT22;53624;0.000;0.000;2022-07-29T01:11:25;23.10;79.80
66710;DHT22;53624;0.000;0.000;2022-07-29T01:13:52;23.00;79.70
66710;DHT22;53624;0.000;0.000;2022-07-29T01:16:20;23.00;80.20
66710;DHT22;53624;0.000;0.000;2022-07-29T01:18:49;22.90;81.10
66710;DHT22;53624;0.000;0.000;2022-07-29T01:21:27;22.90;80.50
66710;DHT22;53624;0.000;0.000;2022-07-29T01:24:09;22.90;81.30
66710;DHT22;53624;0.000;0.000;2022-07-29T01:26:41;22.90;81.70
66710;DHT22;53624;0.000;0.000;2022-07-29T01:29:15;22.90;82.00
66710;DHT22;53624;0.000;0.000;2022-07-29T01:31:45;22.90;81.70
66710;DHT22;53624;0.000;0.000;2022-07-29T01:34:17;22.90;80.60
66710;DHT22;53624;0.000;0.000;2022-07-29T01:36:46;22.80;81.20
66710;DHT22;53624;0.000;0.000;2022-07-29T01:39:16;22.80;81.20
66710;DHT22;53624;0.000;0.000;2022-07-29T01:41:48;22.70;81.30
66710;DHT22;53624;0.000;0.000;2022-07-29T01:44:18;22.80;81.60
66710;DHT22;53624;0.000;0.000;2022-07-29T01:46:49;22.80;82.50
66710;DHT22;53624;0.000;0.000;2022-07-29T01:49:20;22.80;83.30
66710;DHT22;53624;0.000;0.000;2022-07-29T01:51:49;22.70;82.70
66710;DHT22;53624;0.000;0.000;2022-07-29T01:54:18;22.60;83.20
66710;DHT22;53624;0.000;0.000;2022-07-29T01:56:47;22.50;83.50
66710;DHT22;53624;0.000;0.000;2022-07-29T01:59:15;22.50;82.80
66710;DHT22;53624;0.000;0.000;2022-07-29T02:01:44;22.50;81.90
66710;DHT22;53624;0.000;0.000;2022-07-29T02:04:13;22.50;81.30
66710;DHT22;53624;0.000;0.000;2022-07-29T02:06:42;22.60;81.60
66710;DHT22;53624;0.000;0.000;2022-07-29T02:09:12;22.40;81.70
66710;DHT22;53624;0.000;0.000;2022-07-29T02:11:40;22.30;81.90
66710;DHT22;53624;0.000;0.000;2022-07-29T02:14:12;22.30;82.10
66710;DHT22;53624;0.000;0.000;2022-07-29T02:16:41;22.20;82.60
66710;DHT22;53624;0.000;0.000;2022-07-29T02:19:10;22.20;83.40
66710;DHT22;53624;0.000;0.000;2022-07-29T02:21:39;22.10;83.10
66710;DHT22;53624;0.000;0.000;2022-07-29T02:24:08;22.00;83.00
66710;DHT22;53624;0.000;0.000;2022-07-29T02:26:38;22.10;83.00
66710;DHT22;53624;0.000;0.000;2022-07-29T02:29:06;22.10;83.50
66710;DHT22;53624;0.000;0.000;2022-07-29T02:31:35;22.00;83.30
66710;DHT22;53624;0.000;0.000;2022-07-29T02:34:05;21.90;83.40
66710;DHT22;53624;0.000;0.000;2022-07-29T02:36:34;21.90;84.00
66710;DHT22;53624;0.000;0.000;2022-07-29T02:39:03;21.90;84.30
66710;DHT22;53624;0.000;0.000;2022-07-29T02:41:33;21.70;84.00
66710;DHT22;53624;0.000;0.000;2022-07-29T02:44:03;21.70;84.00
66710;DHT22;53624;0.000;0.000;2022-07-29T02:46:32;21.80;84.70
66710;DHT22;53624;0.000;0.000;2022-07-29T02:49:02;21.80;84.40
66710;DHT22;53624;0.000;0.000;2022-07-29T02:51:33;21.80;84.00
66710;DHT22;53624;0.000;0.000;2022-07-29T02:54:05;21.80;83.80
66710;DHT22;53624;0.000;0.000;2022-07-29T02:56:33;21.70;83.70
66710;DHT22;53624;0.000;0.000;2022-07-29T02:59:04;21.50;83.80
66710;DHT22;53624;0.000;0.000;2022-07-29T03:01:33;21.50;84.00
66710;DHT22;53624;0.000;0.000;2022-07-29T03:04:02;21.60;84.30
66710;DHT22;53624;0.000;0.000;2022-07-29T03:06:30;21.60;84.60
66710;DHT22;53624;0.000;0.000;2022-07-29T03:08:58;21.70;85.00
66710;DHT22;53624;0.000;0.000;2022-07-29T03:11:27;21.70;84.60
66710;DHT22;53624;0.000;0.000;2022-07-29T03:13:55;21.60;85.10
66710;DHT22;53624;0.000;0.000;2022-07-29T03:16:23;21.40;84.90
66710;DHT22;53624;0.000;0.000;2022-07-29T03:18:52;21.40;85.20
66710;DHT22;53624;0.000;0.000;2022-07-29T03:21:19;21.30;86.10
66710;DHT22;53624;0.000;0.000;2022-07-29T03:23:47;21.20;85.60
66710;DHT22;53624;0.000;0.000;2022-07-29T03:26:14;21.20;85.70
66710;DHT22;53624;0.000;0.000;2022-07-29T03:28:43;21.30;86.00
66710;DHT22;53624;0.000;0.000;2022-07-29T03:31:10;21.40;86.40
66710;DHT22;53624;0.000;0.000;2022-07-29T03:33:38;21.30;86.20
66710;DHT22;53624;0.000;0.000;2022-07-29T03:36:05;21.30;87.60
66710;DHT22;53624;0.000;0.000;2022-07-29T03:38:33;21.30;87.10
66710;DHT22;53624;0.000;0.000;2022-07-29T03:41:04;21.30;87.70
66710;DHT22;53624;0.000;0.000;2022-07-29T03:43:34;21.10;88.10
66710;DHT22;53624;0.000;0.000;2022-07-29T03:46:03;21.00;88.50
66710;DHT22;53624;0.000;0.000;2022-07-29T03:48:31;20.90;89.00
66710;DHT22;53624;0.000;0.000;2022-07-29T03:51:00;20.80;89.00
66710;DHT22;53624;0.000;0.000;2022-07-29T03:53:27;20.80;88.80
66710;DHT22;53624;0.000;0.000;2022-07-29T03:55:57;20.90;88.30
66710;DHT22;53624;0.000;0.000;2022-07-29T03:58:26;21.00;87.40
66710;DHT22;53624;0.000;0.000;2022-07-29T04:00:54;21.00;87.10
66710;DHT22;53624;0.000;0.000;2022-07-29T04:03:23;21.20;87.70
66710;DHT22;53624;0.000;0.000;2022-07-29T04:06:00;21.20;88.40
66710;DHT22;53624;0.000;0.000;2022-07-29T04:08:28;21.30;87.90
66710;DHT22;53624;0.000;0.000;2022-07-29T04:10:55;21.20;87.60
66710;DHT22;53624;0.000;0.000;2022-07-29T04:13:23;21.30;87.70
66710;DHT22;53624;0.000;0.000;2022-07-29T04:15:50;21.30;88.50
66710;DHT22;53624;0.000;0.000;2022-07-29T04:18:18;21.30;88.80
66710;DHT22;53624;0.000;0.000;2022-07-29T04:20:46;21.10;88.40
66710;DHT22;53624;0.000;0.000;2022-07-29T04:23:14;21.10;89.20
66710;DHT22;53624;0.000;0.000;2022-07-29T04:25:42;21.10;89.00
66710;DHT22;53624;0.000;0.000;2022-07-29T04:28:09;21.10;87.60
66710;DHT22;53624;0.000;0.000;2022-07-29T04:30:37;21.20;88.10
66710;DHT22;53624;0.000;0.000;2022-07-29T04:33:06;21.30;89.50
66710;DHT22;53624;0.000;0.000;2022-07-29T04:35:34;21.20;90.00
66710;DHT22;53624;0.000;0.000;2022-07-29T04:38:03;21.20;90.20
66710;DHT22;53624;0.000;0.000;2022-07-29T04:40:31;21.10;89.40
66710;DHT22;53624;0.000;0.000;2022-07-29T04:42:59;21.20;88.60
66710;DHT22;53624;0.000;0.000;2022-07-29T04:45:27;21.20;89.40
66710;DHT22;53624;0.000;0.000;2022-07-29T04:47:54;21.20;90.40
66710;DHT22;53624;0.000;0.000;2022-07-29T04:50:22;21.10;89.70
66710;DHT22;53624;0.000;0.000;2022-07-29T04:52:50;21.20;89.10
66710;DHT22;53624;0.000;0.000;2022-07-29T04:55:19;21.40;89.40
66710;DHT22;53624;0.000;0.000;2022-07-29T04:57:46;21.50;89.30
66710;DHT22;53624;0.000;0.000;2022-07-29T05:00:14;21.50;90.10
66710;DHT22;53624;0.000;0.000;2022-07-29T05:02:41;21.50;90.20
66710;DHT22;53624;0.000;0.000;2022-07-29T05:05:08;21.60;91.00
66710;DHT22;53624;0.000;0.000;2022-07-29T05:07:36;21.50;89.60
66710;DHT22;53624;0.000;0.000;2022-07-29T05:10:04;21.50;87.30
66710;DHT22;53624;0.000;0.000;2022-07-29T05:12:33;21.70;86.00
66710;DHT22;53624;0.000;0.000;2022-07-29T05:15:00;21.70;86.40
66710;DHT22;53624;0.000;0.000;2022-07-29T05:17:28;21.80;86.50
66710;DHT22;53624;0.000;0.000;2022-07-29T05:19:55;21.80;86.30
66710;DHT22;53624;0.000;0.000;2022-07-29T05:22:22;21.90;88.10
66710;DHT22;53624;0.000;0.000;2022-07-29T05:24:50;21.90;89.60
66710;DHT22;53624;0.000;0.000;2022-07-29T05:27:17;21.80;90.20
66710;DHT22;53624;0.000;0.000;2022-07-29T05:29:46;21.70;90.30
66710;DHT22;53624;0.000;0.000;2022-07-29T05:32:14;21.70;90.80
66710;DHT22;53624;0.000;0.000;2022-07-29T05:34:41;21.70;90.80
66710;DHT22;53624;0.000;0.000;2022-07-29T05:37:09;21.80;90.70
66710;DHT22;53624;0.000;0.000;2022-07-29T05:39:36;21.70;90.90
66710;DHT22;53624;0.000;0.000;2022-07-29T05:42:07;21.70;89.60
66710;DHT22;53624;0.000;0.000;2022-07-29T05:44:36;21.70;90.60
66710;DHT22;53624;0.000;0.000;2022-07-29T05:47:05;21.80;91.10
66710;DHT22;53624;0.000;0.000;2022-07-29T05:49:32;21.90;91.40
66710;DHT22;53624;0.000;0.000;2022-07-29T05:52:00;21.90;91.40
66710;DHT22;53624;0.000;0.000;2022-07-29T05:54:27;21.90;91.50
66710;DHT22;53624;0.000;0.000;2022-07-29T05:56:55;22.00;91.50
66710;DHT22;53624;0.000;0.000;2022-07-29T05:59:22;22.00;91.40
66710;DHT22;53624;0.000;0.000;2022-07-29T06:01:49;22.10;91.90
66710;DHT22;53624;0.000;0.000;2022-07-29T06:04:18;22.20;91.70
66710;DHT22;53624;0.000;0.000;2022-07-29T06:06:46;22.30;91.50
66710;DHT22;53624;0.000;0.000;2022-07-29T06:09:13;22.40;91.10
66710;DHT22;53624;0.000;0.000;2022-07-29T06:11:40;22.50;91.20
66710;DHT22;53624;0.000;0.000;2022-07-29T06:14:08;22.60;91.00
66710;DHT22;53624;0.000;0.000;2022-07-29T06:16:36;22.70;90.50
66710;DHT22;53624;0.000;0.000;2022-07-29T06:19:03;23.00;90.00
66710;DHT22;53624;0.000;0.000;2022-07-29T06:21:32;23.10;90.00
66710;DHT22;53624;0.000;0.000;2022-07-29T06:24:00;23.10;90.50
66710;DHT22;53624;0.000;0.000;2022-07-29T06:26:27;23.00;90.30
66710;DHT22;53624;0.000;0.000;2022-07-29T06:28:55;23.00;90.50
66710;DHT22;53624;0.000;0.000;2022-07-29T06:31:22;23.00;90.60
66710;DHT22;53624;0.000;0.000;2022-07-29T06:33:50;23.00;90.60
66710;DHT22;53624;0.000;0.000;2022-07-29T06:36:18;23.00;89.70
66710;DHT22;53624;0.000;0.000;2022-07-29T06:38:47;23.00;85.70
66710;DHT22;53624;0.000;0.000;2022-07-29T06:41:15;23.10;86.90
66710;DHT22;53624;0.000;0.000;2022-07-29T06:43:43;23.10;85.00
66710;DHT22;53624;0.000;0.000;2022-07-29T06:46:12;23.20;85.30
66710;DHT22;53624;0.000;0.000;2022-07-29T06:48:40;23.20;84.90
66710;DHT22;53624;0.000;0.000;2022-07-29T06:51:08;23.20;83.70
66710;DHT22;53624;0.000;0.000;2022-07-29T06:53:36;23.20;83.10
66710;DHT22;53624;0.000;0.000;2022-07-29T06:56:05;23.20;83.50
66710;DHT22;53624;0.000;0.000;2022-07-29T06:58:34;23.20;81.60
66710;DHT22;53624;0.000;0.000;2022-07-29T07:01:03;23.20;82.40
66710;DHT22;53624;0.000;0.000;2022-07-29T07:03:31;23.30;82.50
66710;DHT22;53624;0.000;0.000;2022-07-29T07:05:59;23.20;82.60
66710;DHT22;53624;0.000;0.000;2022-07-29T07:08:26;23.30;82.80
66710;DHT22;53624;0.000;0.000;2022-07-29T07:10:53;23.40;82.70
66710;DHT22;53624;0.000;0.000;2022-07-29T07:13:23;23.40;83.00
66710;DHT22;53624;0.000;0.000;2022-07-29T07:15:51;23.40;82.60
66710;DHT22;53624;0.000;0.000;2022-07-29T07:18:18;23.50;82.30
66710;DHT22;53624;0.000;0.000;2022-07-29T07:20:46;23.50;81.80
66710;DHT22;53624;0.000;0.000;2022-07-29T07:23:13;23.50;81.70
66710;DHT22;53624;0.000;0.000;2022-07-29T07:25:41;23.40;82.50
66710;DHT22;53624;0.000;0.000;2022-07-29T07:28:08;23.40;82.10
66710;DHT22;53624;0.000;0.000;2022-07-29T07:30:37;23.50;82.30
66710;DHT22;53624;0.000;0.000;2022-07-29T07:33:04;23.40;83.40
66710;DHT22;53624;0.000;0.000;2022-07-29T07:35:32;23.40;81.80
66710;DHT22;53624;0.000;0.000;2022-07-29T07:37:59;23.40;82.10
66710;DHT22;53624;0.000;0.000;2022-07-29T07:40:27;23.40;82.60
66710;DHT22;53624;0.000;0.000;2022-07-29T07:42:54;23.40;82.40
66710;DHT22;53624;0.000;0.000;2022-07-29T07:45:22;23.40;83.00
66710;DHT22;53624;0.000;0.000;2022-07-29T07:47:50;23.40;82.80
66710;DHT22;53624;0.000;0.000;2022-07-29T07:50:18;23.40;83.20
66710;DHT22;53624;0.000;0.000;2022-07-29T07:52:46;23.40;82.70
66710;DHT22;53624;0.000;0.000;2022-07-29T07:55:14;23.40;83.50
66710;DHT22;53624;0.000;0.000;2022-07-29T07:57:42;23.40;83.60
66710;DHT22;53624;0.000;0.000;2022-07-29T08:00:10;23.40;82.00
66710;DHT22;53624;0.000;0.000;2022-07-29T08:02:41;23.40;83.00
66710;DHT22;53624;0.000;0.000;2022-07-29T08:05:12;23.50;83.30
66710;DHT22;53624;0.000;0.000;2022-07-29T08:07:43;23.50;83.00
66710;DHT22;53624;0.000;0.000;2022-07-29T08:10:11;23.40;83.20
66710;DHT22;53624;0.000;0.000;2022-07-29T08:12:39;23.40;82.70
66710;DHT22;53624;0.000;0.000;2022-07-29T08:15:07;23.30;82.80
66710;DHT22;53624;0.000;0.000;2022-07-29T08:17:34;23.30;83.10
66710;DHT22;53624;0.000;0.000;2022-07-29T08:20:02;23.30;83.70
66710;DHT22;53624;0.000;0.000;2022-07-29T08:22:31;23.20;84.00
66710;DHT22;53624;0.000;0.000;2022-07-29T08:24:58;23.20;84.50
66710;DHT22;53624;0.000;0.000;2022-07-29T08:27:26;23.10;90.00
66710;DHT22;53624;0.000;0.000;2022-07-29T08:29:55;23.00;89.30
66710;DHT22;53624;0.000;0.000;2022-07-29T08:32:23;23.00;90.10
66710;DHT22;53624;0.000;0.000;2022-07-29T08:34:50;22.90;90.40
66710;DHT22;53624;0.000;0.000;2022-07-29T08:37:18;22.80;90.80
66710;DHT22;53624;0.000;0.000;2022-07-29T08:39:47;22.80;91.50
66710;DHT22;53624;0.000;0.000;2022-07-29T08:42:14;22.80;91.20
66710;DHT22;53624;0.000;0.000;2022-07-29T08:44:42;22.80;91.70
66710;DHT22;53624;0.000;0.000;2022-07-29T08:47:10;22.80;92.90
66710;DHT22;53624;0.000;0.000;2022-07-29T08:49:41;22.80;92.30
66710;DHT22;53624;0.000;0.000;2022-07-29T08:52:10;22.90;91.90
66710;DHT22;53624;0.000;0.000;2022-07-29T08:54:38;22.80;91.50
66710;DHT22;53624;0.000;0.000;2022-07-29T08:57:07;22.80;91.80
66710;DHT22;53624;0.000;0.000;2022-07-29T08:59:34;22.70;91.70
66710;DHT22;53624;0.000;0.000;2022-07-29T09:02:02;22.70;92.00
66710;DHT22;53624;0.000;0.000;2022-07-29T09:04:30;22.70;92.40
66710;DHT22;53624;0.000;0.000;2022-07-29T09:07:02;22.60;92.70
66710;DHT22;53624;0.000;0.000;2022-07-29T09:09:32;22.50;93.50
66710;DHT22;53624;0.000;0.000;2022-07-29T09:12:00;22.50;93.30
66710;DHT22;53624;0.000;0.000;2022-07-29T09:14:31;22.40;93.70
66710;DHT22;53624;0.000;0.000;2022-07-29T09:16:58;22.40;93.20
66710;DHT22;53624;0.000;0.000;2022-07-29T09:19:27;22.30;95.10
66710;DHT22;53624;0.000;0.000;2022-07-29T09:21:55;22.20;95.50
66710;DHT22;53624;0.000;0.000;2022-07-29T09:24:25;22.00;97.50
66710;DHT22;53624;0.000;0.000;2022-07-29T09:26:53;21.90;98.80
66710;DHT22;53624;0.000;0.000;2022-07-29T09:29:21;21.90;99.20
66710;DHT22;53624;0.000;0.000;2022-07-29T09:31:51;21.80;99.90
66710;DHT22;53624;0.000;0.000;2022-07-29T09:34:21;21.90;99.90
66710;DHT22;53624;0.000;0.000;2022-07-29T09:36:49;21.90;99.90
66710;DHT22;53624;0.000;0.000;2022-07-29T09:39:26;21.80;99.90
66710;DHT22;53624;0.000;0.000;2022-07-29T09:41:55;21.70;99.90
66710;DHT22;53624;0.000;0.000;2022-07-29T09:44:23;21.70;99.90
66710;DHT22;53624;0.000;0.000;2022-07-29T09:46:58;21.70;99.90
66710;DHT22;53624;0.000;0.000;2022-07-29T09:49:31;21.60;99.90
66710;DHT22;53624;0.000;0.000;2022-07-29T09:52:00;21.50;99.90
66710;DHT22;53624;0.000;0.000;2022-07-29T09:54:28;21.40;99.90
66710;DHT22;53624;0.000;0.000;2022-07-29T09:57:00;21.30;99.90
66710;DHT22;53624;0.000;0.000;2022-07-29T09:59:27;21.30;99.90
66710;DHT22;53624;0.000;0.000;2022-07-29T10:01:55;21.30;99.90
66710;DHT22;53624;0.000;0.000;2022-07-29T10:04:24;21.20;99.90
66710;DHT22;53624;0.000;0.000;2022-07-29T10:07:03;21.10;99.90
66710;DHT22;53624;0.000;0.000;2022-07-29T10:09:31;21.10;99.90
66710;DHT22;53624;0.000;0.000;2022-07-29T10:12:03;21.10;99.90
66710;DHT22;53624;0.000;0.000;2022-07-29T10:14:30;21.20;99.90
66710;DHT22;53624;0.000;0.000;2022-07-29T10:16:58;21.20;99.90
66710;DHT22;53624;0.000;0.000;2022-07-29T10:19:28;21.20;99.90
66710;DHT22;53624;0.000;0.000;2022-07-29T10:21:57;21.30;99.90
66710;DHT22;53624;0.000;0.000;2022-07-29T10:24:25;21.40;99.90
66710;DHT22;53624;0.000;0.000;2022-07-29T10:26:53;21.40;99.90
66710;DHT22;53624;0.000;0.000;2022-07-29T10:29:21;21.40;99.90
66710;DHT22;53624;0.000;0.000;2022-07-29T10:31:49;21.30;99.90
66710;DHT22;53624;0.000;0.000;2022-07-29T10:34:20;21.30;99.90
66710;DHT22;53624;0.000;0.000;2022-07-29T10:36:53;21.40;99.90
66710;DHT22;53624;0.000;0.000;2022-07-29T10:39:25;21.40;99.90
66710;DHT22;53624;0.000;0.000;2022-07-29T10:42:10;21.40;99.90
66710;DHT22;53624;0.000;0.000;2022-07-29T10:44:40;21.40;99.90
66710;DHT22;53624;0.000;0.000;2022-07-29T10:47:16;21.40;99.90
66710;DHT22;53624;0.000;0.000;2022-07-29T10:49:54;21.50;99.90
66710;DHT22;53624;0.000;0.000;2022-07-29T10:52:23;21.50;99.90
66710;DHT22;53624;0.000;0.000;2022-07-29T10:54:53;21.40;99.90
66710;DHT22;53624;0.000;0.000;2022-07-29T10:57:25;21.30;99.90
66710;DHT22;53624;0.000;0.000;2022-07-29T11:02:43;21.30;99.90
66710;DHT22;53624;0.000;0.000;2022-07-29T11:05:11;21.30;99.90
66710;DHT22;53624;0.000;0.000;2022-07-29T11:08:16;21.30;99.90
66710;DHT22;53624;0.000;0.000;2022-07-29T11:10:28;21.40;99.90
66710;DHT22;53624;0.000;0.000;2022-07-29T11:12:55;21.30;99.90
66710;DHT22;53624;0.000;0.000;2022-07-29T11:15:24;21.30;99.90
66710;DHT22;53624;0.000;0.000;2022-07-29T11:18:07;21.40;99.90
66710;DHT22;53624;0.000;0.000;2022-07-29T11:20:39;21.40;99.90
66710;DHT22;53624;0.000;0.000;2022-07-29T11:23:28;21.50;99.90
66710;DHT22;53624;0.000;0.000;2022-07-29T11:26:17;21.60;99.90
66710;DHT22;53624;0.000;0.000;2022-07-29T11:28:48;21.60;99.90
66710;DHT22;53624;0.000;0.000;2022-07-29T11:31:17;21.60;99.90
66710;DHT22;53624;0.000;0.000;2022-07-29T11:33:46;21.60;99.90
66710;DHT22;53624;0.000;0.000;2022-07-29T11:36:14;21.60;99.90
66710;DHT22;53624;0.000;0.000;2022-07-29T11:38:43;21.60;99.90
66710;DHT22;53624;0.000;0.000;2022-07-29T11:41:20;21.70;99.90
66710;DHT22;53624;0.000;0.000;2022-07-29T11:43:48;21.60;99.90
66710;DHT22;53624;0.000;0.000;2022-07-29T11:46:17;21.60;99.90
66710;DHT22;53624;0.000;0.000;2022-07-29T11:48:46;21.60;99.90
66710;DHT22;53624;0.000;0.000;2022-07-29T11:51:14;21.80;99.90
66710;DHT22;53624;0.000;0.000;2022-07-29T11:53:43;21.80;99.90
66710;DHT22;53624;0.000;0.000;2022-07-29T11:56:13;22.00;99.90
66710;DHT22;53624;0.000;0.000;2022-07-29T11:58:41;22.10;99.90
66710;DHT22;53624;0.000;0.000;2022-07-29T12:01:12;22.10;99.90
66710;DHT22;53624;0.000;0.000;2022-07-29T12:03:39;22.10;99.90
66710;DHT22;53624;0.000;0.000;2022-07-29T12:06:11;22.30;99.90
66710;DHT22;53624;0.000;0.000;2022-07-29T12:08:39;22.40;99.90
66710;DHT22;53624;0.000;0.000;2022-07-29T12:11:16;22.50;99.90
66710;DHT22;53624;0.000;0.000;2022-07-29T12:13:43;22.60;99.90
66710;DHT22;53624;0.000;0.000;2022-07-29T12:16:11;22.60;99.90
66710;DHT22;53624;0.000;0.000;2022-07-29T12:18:38;22.70;99.90
66710;DHT22;53624;0.000;0.000;2022-07-29T12:21:06;22.70;99.90
66710;DHT22;53624;0.000;0.000;2022-07-29T12:23:34;22.70;99.90
66710;DHT22;53624;0.000;0.000;2022-07-29T12:26:03;22.90;99.90
66710;DHT22;53624;0.000;0.000;2022-07-29T12:28:36;23.10;99.90
66710;DHT22;53624;0.000;0.000;2022-07-29T12:31:03;23.40;99.90
66710;DHT22;53624;0.000;0.000;2022-07-29T12:33:31;23.80;99.90
66710;DHT22;53624;0.000;0.000;2022-07-29T12:36:00;23.90;99.90
66710;DHT22;53624;0.000;0.000;2022-07-29T12:38:29;24.00;99.90
66710;DHT22;53624;0.000;0.000;2022-07-29T12:40:56;24.00;99.90
66710;DHT22;53624;0.000;0.000;2022-07-29T12:43:24;24.00;99.90
66710;DHT22;53624;0.000;0.000;2022-07-29T12:45:54;24.00;99.90
66710;DHT22;53624;0.000;0.000;2022-07-29T12:48:32;24.00;99.90
66710;DHT22;53624;0.000;0.000;2022-07-29T12:51:00;24.10;99.90
66710;DHT22;53624;0.000;0.000;2022-07-29T12:53:28;24.30;99.90
66710;DHT22;53624;0.000;0.000;2022-07-29T12:55:56;24.40;99.90
66710;DHT22;53624;0.000;0.000;2022-07-29T12:58:29;24.60;99.90
66710;DHT22;53624;0.000;0.000;2022-07-29T13:01:02;24.80;99.90
66710;DHT22;53624;0.000;0.000;2022-07-29T13:03:41;24.90;99.90
66710;DHT22;53624;0.000;0.000;2022-07-29T13:08:58;25.30;99.90
66710;DHT22;53624;0.000;0.000;2022-07-29T13:11:29;25.50;99.90
66710;DHT22;53624;0.000;0.000;2022-07-29T13:13:57;25.60;99.90
66710;DHT22;53624;0.000;0.000;2022-07-29T13:16:25;25.70;99.90
66710;DHT22;53624;0.000;0.000;2022-07-29T13:19:03;25.80;99.90
66710;DHT22;53624;0.000;0.000;2022-07-29T13:21:30;25.90;99.90
66710;DHT22;53624;0.000;0.000;2022-07-29T13:23:58;26.00;99.90
66710;DHT22;53624;0.000;0.000;2022-07-29T13:26:25;26.10;99.90
66710;DHT22;53624;0.000;0.000;2022-07-29T13:28:53;26.20;99.90
66710;DHT22;53624;0.000;0.000;2022-07-29T13:31:21;26.30;99.90
66710;DHT22;53624;0.000;0.000;2022-07-29T13:33:50;26.40;99.90
66710;DHT22;53624;0.000;0.000;2022-07-29T13:36:17;26.40;99.20
66710;DHT22;53624;0.000;0.000;2022-07-29T13:38:45;26.50;99.00
66710;DHT22;53624;0.000;0.000;2022-07-29T13:41:12;26.50;98.70
66710;DHT22;53624;0.000;0.000;2022-07-29T13:43:40;26.40;98.40
66710;DHT22;53624;0.000;0.000;2022-07-29T13:46:07;26.20;98.70
66710;DHT22;53624;0.000;0.000;2022-07-29T13:48:35;26.10;98.40
66710;DHT22;53624;0.000;0.000;2022-07-29T13:51:03;26.10;98.40
66710;DHT22;53624;0.000;0.000;2022-07-29T13:53:31;26.10;98.00
66710;DHT22;53624;0.000;0.000;2022-07-29T13:55:58;26.20;97.30
66710;DHT22;53624;0.000;0.000;2022-07-29T13:58:26;26.30;97.00
66710;DHT22;53624;0.000;0.000;2022-07-29T14:00:53;26.50;96.90
66710;DHT22;53624;0.000;0.000;2022-07-29T14:03:21;26.70;96.60
66710;DHT22;53624;0.000;0.000;2022-07-29T14:05:48;26.70;96.00
66710;DHT22;53624;0.000;0.000;2022-07-29T14:08:17;26.70;95.30
66710;DHT22;53624;0.000;0.000;2022-07-29T14:10:44;26.80;95.10
66710;DHT22;53624;0.000;0.000;2022-07-29T14:13:12;26.90;96.00
66710;DHT22;53624;0.000;0.000;2022-07-29T14:15:39;27.00;96.20
66710;DHT22;53624;0.000;0.000;2022-07-29T14:18:06;27.10;96.20
66710;DHT22;53624;0.000;0.000;2022-07-29T14:20:34;27.20;96.10
66710;DHT22;53624;0.000;0.000;2022-07-29T14:23:01;27.30;96.10
66710;DHT22;53624;0.000;0.000;2022-07-29T14:25:30;27.30;96.00
66710;DHT22;53624;0.000;0.000;2022-07-29T14:27:58;27.30;95.90
66710;DHT22;53624;0.000;0.000;2022-07-29T14:30:25;27.30;96.20
66710;DHT22;53624;0.000;0.000;2022-07-29T14:32:53;27.30;96.00
66710;DHT22;53624;0.000;0.000;2022-07-29T14:35:20;27.40;95.60
66710;DHT22;53624;0.000;0.000;2022-07-29T14:37:47;27.50;95.00
66710;DHT22;53624;0.000;0.000;2022-07-29T14:40:15;27.50;94.00
66710;DHT22;53624;0.000;0.000;2022-07-29T14:42:44;27.60;93.50
66710;DHT22;53624;0.000;0.000;2022-07-29T14:45:11;27.60;93.00
66710;DHT22;53624;0.000;0.000;2022-07-29T14:47:39;27.70;92.60
66710;DHT22;53624;0.000;0.000;2022-07-29T14:50:06;27.70;92.00
66710;DHT22;53624;0.000;0.000;2022-07-29T14:52:34;27.70;91.70
66710;DHT22;53624;0.000;0.000;2022-07-29T14:55:02;27.70;91.40
66710;DHT22;53624;0.000;0.000;2022-07-29T14:57:30;27.80;91.20
66710;DHT22;53624;0.000;0.000;2022-07-29T14:59:58;27.80;90.90
66710;DHT22;53624;0.000;0.000;2022-07-29T15:02:26;27.90;90.80
66710;DHT22;53624;0.000;0.000;2022-07-29T15:04:53;27.90;90.80
66710;DHT22;53624;0.000;0.000;2022-07-29T15:07:21;27.90;90.30
66710;DHT22;53624;0.000;0.000;2022-07-29T15:09:48;27.80;90.20
66710;DHT22;53624;0.000;0.000;2022-07-29T15:12:16;27.80;90.50
66710;DHT22;53624;0.000;0.000;2022-07-29T15:14:43;27.80;90.00
66710;DHT22;53624;0.000;0.000;2022-07-29T15:17:12;27.80;89.80
66710;DHT22;53624;0.000;0.000;2022-07-29T15:19:40;27.80;89.10
66710;DHT22;53624;0.000;0.000;2022-07-29T15:22:07;27.90;89.30
66710;DHT22;53624;0.000;0.000;2022-07-29T15:24:34;27.90;90.00
66710;DHT22;53624;0.000;0.000;2022-07-29T15:27:02;27.90;89.30
66710;DHT22;53624;0.000;0.000;2022-07-29T15:29:29;27.90;88.50
66710;DHT22;53624;0.000;0.000;2022-07-29T15:31:57;27.90;88.60
66710;DHT22;53624;0.000;0.000;2022-07-29T15:34:26;27.90;88.80
66710;DHT22;53624;0.000;0.000;2022-07-29T15:36:53;28.00;88.70
66710;DHT22;53624;0.000;0.000;2022-07-29T15:39:21;28.00;88.30
66710;DHT22;53624;0.000;0.000;2022-07-29T15:41:49;28.00;88.70
66710;DHT22;53624;0.000;0.000;2022-07-29T15:44:17;27.90;88.60
66710;DHT22;53624;0.000;0.000;2022-07-29T15:46:44;27.90;87.70
66710;DHT22;53624;0.000;0.000;2022-07-29T15:49:32;27.90;86.90
66710;DHT22;53624;0.000;0.000;2022-07-29T15:52:00;27.90;87.80
66710;DHT22;53624;0.000;0.000;2022-07-29T15:54:28;27.80;86.80
66710;DHT22;53624;0.000;0.000;2022-07-29T15:56:56;27.80;87.10
66710;DHT22;53624;0.000;0.000;2022-07-29T15:59:23;27.70;90.00
66710;DHT22;53624;0.000;0.000;2022-07-29T16:01:51;27.60;89.50